Terminal Aerodrome Forecast
Issued by NWS

Home | Current Version | Previous Version | Text Only | Print | Product List | Glossary On
Versions: 1 2 3 4 5 6 7 8 9 10 11 12
702
FTUS44 KTSA 200520
TAFFYV
TAF
KFYV 200520Z 2006/2106 00000KT P6SM SCT250
     FM201500 18012G20KT P6SM BKN250
     FM210300 17010KT P6SM SCT050 BKN250=

USA.gov is the U.S. government's official web portal to all federal, state and local government web resources and services.